GOSS

Saint Louis Airport

Saint Louis, Senegal
METAR GOSS 212100Z 32004KT 9999 SCT010 SCT130 24/21 Q1013
Observed Flight Rules
Jun-21 @ 21:00 UTC (an hour ago) Visual Flight Rules
Wind Visibility Clouds
320° at 4 knots 10,000+ meters
  • Scattered at 1,000' AGL
  • Scattered at 13,000' AGL
Temperatures Readings
Current 24°C / 75°F
Dewpoint 21°C / 70°F
Humidity 83%
Altimeter 29.91" Hg
Pressure 1013 hPa
Elevation 4
METAR GOSS 212100Z 32004KT 9999 SCT010 SCT130 24/21 Q1013
Observed Flight Rules
Jun-21 @ 21:00 UTC
(an hour ago)
VFR
Wind Visibility
320° at 4 knots 10,000+ meters
Clouds
  • Scattered at 1,000' AGL
  • Scattered at 13,000' AGL
Temperature Dewpoint
24°C / 75°F 21°C / 70°F
Humidity Altimeter Pressure
83% 29.91" Hg 1013 hPa